Time;durP1;ratioP1;P1;durP2;ratioP2;P2;SDS_P1;SDS_P2;PMS_P1;PMS_P2;Temp;Humidity;BMP_temperature;BMP_pressure;BME280_temperature;BME280_humidity;BME280_pressure;Samples;Min_cycle;Max_cycle;Signal;HPM_P1;HPM_P2
2022/03/12 00:04:45;;;;;;;4.10;2.90;;;16.90;57.50;;;;;;10375099;28;20057;-56
2022/03/12 00:09:45;;;;;;;4.90;3.70;;;16.90;57.50;;;;;;10380898;28;20067;-56
2022/03/12 00:14:49;;;;;;;4.70;3.65;;;16.90;57.40;;;;;;10397690;28;20132;-55
2022/03/12 00:19:50;;;;;;;6.25;3.25;;;16.90;57.40;;;;;;10410851;28;20425;-56
2022/03/12 00:24:51;;;;;;;3.72;2.58;;;16.90;57.30;;;;;;10374221;28;20116;-56
2022/03/12 00:29:52;;;;;;;4.28;3.08;;;17.00;57.10;;;;;;10370016;28;20029;-56
2022/03/12 00:34:53;;;;;;;4.78;3.30;;;17.00;57.10;;;;;;10373443;28;20034;-56
2022/03/12 00:39:54;;;;;;;4.00;3.17;;;17.00;57.20;;;;;;10378095;28;20053;-56
2022/03/12 00:44:54;;;;;;;4.50;2.90;;;17.00;57.30;;;;;;10388812;28;20160;-56
2022/03/12 00:49:55;;;;;;;3.92;2.95;;;16.90;57.20;;;;;;10358814;28;20303;-56
2022/03/12 00:54:56;;;;;;;4.38;2.90;;;16.90;57.30;;;;;;10375065;28;20065;-56
2022/03/12 00:59:56;;;;;;;3.90;2.80;;;16.80;57.20;;;;;;10381920;28;20069;-56
2022/03/12 01:04:57;;;;;;;3.42;2.65;;;16.90;57.30;;;;;;10373007;28;20065;-56
2022/03/12 01:09:59;;;;;;;4.18;2.55;;;16.90;57.40;;;;;;10355120;28;20053;-56
2022/03/12 01:15:00;;;;;;;3.50;2.33;;;17.00;57.10;;;;;;10372905;28;20025;-56
2022/03/12 01:20:02;;;;;;;3.92;3.10;;;17.00;56.90;;;;;;10376207;28;20429;-55
2022/03/12 01:25:06;;;;;;;4.70;2.70;;;17.00;56.80;;;;;;10400857;28;20481;-56
2022/03/12 01:30:08;;;;;;;4.80;3.00;;;17.10;56.50;;;;;;10382045;28;20037;-56
2022/03/12 01:35:09;;;;;;;4.35;2.53;;;17.10;56.40;;;;;;10378520;28;20382;-55
2022/03/12 01:40:11;;;;;;;4.32;2.72;;;17.10;56.50;;;;;;10371169;28;20105;-55
2022/03/12 01:45:18;;;;;;;3.13;2.10;;;17.10;56.60;;;;;;10402486;28;20033;-55
2022/03/12 01:50:21;;;;;;;4.53;3.00;;;17.00;56.70;;;;;;10389973;28;20043;-55
2022/03/12 01:55:22;;;;;;;3.60;2.42;;;17.10;56.50;;;;;;10381101;28;20156;-54
2022/03/12 02:00:25;;;;;;;3.08;2.40;;;17.20;56.40;;;;;;10378943;28;20100;-55
2022/03/12 02:05:27;;;;;;;3.55;2.85;;;17.10;56.30;;;;;;10406072;28;20030;-55
2022/03/12 02:10:28;;;;;;;3.78;2.47;;;17.10;56.40;;;;;;10420282;28;20021;-56
2022/03/12 02:15:29;;;;;;;4.60;2.70;;;17.00;56.60;;;;;;10410858;28;20029;-55
2022/03/12 02:20:31;;;;;;;3.00;2.33;;;17.00;56.70;;;;;;10379086;28;20101;-55
2022/03/12 02:25:33;;;;;;;4.30;3.42;;;17.00;57.50;;;;;;10400741;28;20128;-55
2022/03/12 02:30:40;;;;;;;3.97;3.00;;;16.90;56.80;;;;;;10419555;28;20029;-56
2022/03/12 02:35:43;;;;;;;2.85;2.30;;;16.90;56.90;;;;;;10400954;28;20048;-56
2022/03/12 02:40:45;;;;;;;4.28;2.72;;;16.90;57.00;;;;;;10388599;28;20029;-56
2022/03/12 02:45:51;;;;;;;3.55;2.55;;;16.90;57.00;;;;;;10392681;28;20062;-56
2022/03/12 02:50:53;;;;;;;4.15;2.53;;;16.80;57.00;;;;;;10390356;28;20026;-56
2022/03/12 02:55:55;;;;;;;4.03;2.45;;;16.80;57.00;;;;;;10378819;28;20026;-54
2022/03/12 03:00:56;;;;;;;2.67;2.03;;;16.80;57.10;;;;;;10373266;28;20241;-55
2022/03/12 03:05:57;;;;;;;3.88;2.22;;;16.90;57.00;;;;;;10398204;28;20041;-55
2022/03/12 03:10:59;;;;;;;4.25;2.67;;;17.00;56.60;;;;;;10417916;28;20540;-55
2022/03/12 03:16:28;;;;;;;3.08;1.75;;;17.00;56.50;;;;;;10397646;28;20045;-56
2022/03/12 03:21:29;;;;;;;2.97;1.92;;;17.10;56.40;;;;;;10413186;28;20037;-55
2022/03/12 03:26:39;;;;;;;3.58;1.80;;;17.10;56.10;;;;;;10416115;28;20049;-56
2022/03/12 03:31:39;;;;;;;3.38;2.50;;;17.10;56.10;;;;;;10417228;28;20022;-56
2022/03/12 03:36:40;;;;;;;3.58;2.50;;;17.10;56.30;;;;;;10369534;28;20116;-55
2022/03/12 03:41:41;;;;;;;3.40;2.53;;;17.00;56.50;;;;;;10371519;28;20374;-56
2022/03/12 03:46:42;;;;;;;3.03;1.90;;;17.00;56.50;;;;;;10387038;28;20088;-56
2022/03/12 03:51:43;;;;;;;2.50;1.83;;;17.00;56.60;;;;;;10376346;28;20597;-56
2022/03/12 03:56:43;;;;;;;2.95;1.90;;;17.10;56.30;;;;;;10388488;28;20040;-56
2022/03/12 04:01:45;;;;;;;3.17;2.25;;;17.10;56.20;;;;;;10375050;28;20153;-55
2022/03/12 04:06:45;;;;;;;3.13;2.17;;;17.00;56.20;;;;;;10392676;28;20508;-56
2022/03/12 04:11:46;;;;;;;2.70;1.98;;;17.00;56.40;;;;;;10414676;28;20105;-56
2022/03/12 04:16:47;;;;;;;3.35;1.90;;;17.00;56.60;;;;;;10393929;28;20033;-55
2022/03/12 04:21:48;;;;;;;3.10;2.00;;;17.00;56.40;;;;;;10415184;28;20053;-55
2022/03/12 04:26:50;;;;;;;2.95;2.33;;;17.00;56.20;;;;;;10376313;28;20038;-55
2022/03/12 04:31:51;;;;;;;3.30;2.00;;;17.10;56.10;;;;;;10373834;28;20045;-56
2022/03/12 04:36:52;;;;;;;3.70;1.98;;;17.20;55.60;;;;;;10384791;28;20174;-56
2022/03/12 04:41:53;;;;;;;3.00;1.98;;;17.30;55.50;;;;;;10382368;28;20420;-55
2022/03/12 04:46:54;;;;;;;3.15;2.35;;;17.20;55.60;;;;;;10374534;28;20485;-56
2022/03/12 04:51:55;;;;;;;2.80;1.83;;;17.10;55.80;;;;;;10375040;28;20032;-56
2022/03/12 04:56:56;;;;;;;4.53;2.45;;;17.10;56.00;;;;;;10355559;28;20048;-55
2022/03/12 05:01:57;;;;;;;2.63;1.90;;;17.10;56.10;;;;;;10373088;28;20034;-56
2022/03/12 05:06:58;;;;;;;3.70;2.20;;;17.10;56.00;;;;;;10384806;28;20033;-56
2022/03/12 05:12:05;;;;;;;2.85;1.80;;;17.10;55.90;;;;;;10372621;28;20112;-55
2022/03/12 05:17:08;;;;;;;3.13;1.80;;;17.10;55.90;;;;;;10373113;28;20145;-56
2022/03/12 05:22:09;;;;;;;3.05;2.03;;;17.10;56.00;;;;;;10373263;28;20052;-56
2022/03/12 05:27:13;;;;;;;3.38;2.10;;;17.10;55.90;;;;;;10391789;28;20137;-56
2022/03/12 05:32:15;;;;;;;2.78;1.88;;;17.10;55.80;;;;;;10370519;28;20080;-56
2022/03/12 05:37:17;;;;;;;3.33;2.42;;;17.10;55.80;;;;;;10379236;28;20034;-56
2022/03/12 05:42:22;;;;;;;3.58;2.67;;;17.10;56.00;;;;;;10371836;28;20029;-55
2022/03/12 05:47:24;;;;;;;4.22;1.90;;;17.00;56.20;;;;;;10375062;28;20128;-56
2022/03/12 05:52:25;;;;;;;2.90;2.25;;;17.00;56.30;;;;;;10366788;28;20028;-56
2022/03/12 05:57:26;;;;;;;4.60;2.40;;;17.10;56.40;;;;;;10357505;28;20069;-55
2022/03/12 06:02:27;;;;;;;4.45;2.30;;;17.10;56.00;;;;;;10397990;28;20072;-56
2022/03/12 06:07:29;;;;;;;4.95;2.70;;;17.20;56.60;;;;;;10397057;28;20478;-55
2022/03/12 06:12:30;;;;;;;9.07;3.03;;;17.30;56.40;;;;;;10384266;28;20096;-55
2022/03/12 06:17:31;;;;;;;6.57;2.85;;;17.30;58.00;;;;;;10369720;28;20067;-56
2022/03/12 06:22:31;;;;;;;9.00;2.85;;;17.20;58.20;;;;;;10371287;28;20156;-55
2022/03/12 06:27:33;;;;;;;16.95;3.47;;;17.30;58.20;;;;;;10366390;28;20069;-57
2022/03/12 06:32:34;;;;;;;6.25;3.17;;;17.20;58.50;;;;;;10375020;28;20022;-55
2022/03/12 06:37:34;;;;;;;10.82;3.03;;;17.20;58.80;;;;;;10378665;28;20042;-56
2022/03/12 06:42:37;;;;;;;8.13;3.08;;;17.20;59.10;;;;;;10387216;28;20564;-56
2022/03/12 06:47:38;;;;;;;8.40;3.20;;;17.10;59.20;;;;;;10377725;28;20025;-55
2022/03/12 06:52:45;;;;;;;17.05;3.58;;;17.00;59.40;;;;;;10383436;28;20032;-54
2022/03/12 06:57:47;;;;;;;9.63;3.35;;;17.10;59.70;;;;;;10387484;28;20040;-50
2022/03/12 07:02:48;;;;;;;13.23;3.42;;;17.10;59.50;;;;;;10388138;28;20028;-55
2022/03/12 07:07:51;;;;;;;9.30;4.07;;;17.10;59.60;;;;;;10389869;28;20481;-56
2022/03/12 07:12:53;;;;;;;8.55;3.22;;;17.10;59.70;;;;;;10359414;28;20573;-57
2022/03/12 07:17:54;;;;;;;7.20;3.22;;;16.90;59.20;;;;;;10377005;28;20364;-55
2022/03/12 07:22:55;;;;;;;5.13;2.90;;;16.80;58.70;;;;;;10383447;28;20053;-55
2022/03/12 07:27:56;;;;;;;7.47;3.10;;;16.80;58.70;;;;;;10375039;28;20044;-55
2022/03/12 07:32:57;;;;;;;6.30;2.90;;;16.80;58.60;;;;;;10376225;28;20021;-56
2022/03/12 07:37:58;;;;;;;10.38;2.92;;;16.80;58.80;;;;;;10381294;28;20044;-55
2022/03/12 07:42:59;;;;;;;15.32;4.07;;;16.80;58.60;;;;;;10375195;28;20018;-55
2022/03/12 07:48:00;;;;;;;13.45;4.25;;;16.80;58.60;;;;;;10396811;28;20030;-56
2022/03/12 07:53:00;;;;;;;20.92;4.65;;;16.80;58.70;;;;;;10381105;28;20029;-56
2022/03/12 07:58:01;;;;;;;16.33;5.68;;;16.90;58.60;;;;;;10391196;28;20129;-56
2022/03/12 08:03:02;;;;;;;17.23;4.30;;;16.90;58.50;;;;;;10371123;28;20133;-56
2022/03/12 08:08:04;;;;;;;18.70;4.18;;;17.00;58.40;;;;;;10379595;28;20042;-57
2022/03/12 08:13:05;;;;;;;26.77;4.55;;;16.90;58.20;;;;;;10366562;28;20022;-57
2022/03/12 08:18:05;;;;;;;17.80;4.68;;;16.90;58.50;;;;;;10401674;28;20062;-55
2022/03/12 08:23:07;;;;;;;20.05;4.53;;;16.80;58.70;;;;;;10370784;28;20124;-59
2022/03/12 08:28:08;;;;;;;15.65;4.47;;;16.90;58.80;;;;;;10386102;28;20042;-58
2022/03/12 08:33:09;;;;;;;17.00;4.75;;;16.80;58.50;;;;;;10412771;28;20125;-57
2022/03/12 08:38:11;;;;;;;11.93;3.83;;;16.80;58.40;;;;;;10374329;28;20025;-57
2022/03/12 08:43:11;;;;;;;9.20;3.50;;;16.80;58.40;;;;;;10371059;28;20021;-57
2022/03/12 08:48:12;;;;;;;17.10;3.65;;;16.80;58.20;;;;;;10381906;28;20113;-57
2022/03/12 08:53:15;;;;;;;13.82;4.72;;;16.80;58.10;;;;;;10369964;28;20053;-57
2022/03/12 08:58:17;;;;;;;9.40;3.72;;;16.70;58.00;;;;;;10359477;28;20033;-57
2022/03/12 09:03:20;;;;;;;5.88;3.20;;;16.70;57.90;;;;;;10373673;28;20026;-55
2022/03/12 09:08:21;;;;;;;25.65;5.75;;;16.80;57.90;;;;;;10379144;28;20052;-57
2022/03/12 09:13:23;;;;;;;26.83;5.75;;;16.70;58.00;;;;;;10371916;28;20474;-56
2022/03/12 09:18:24;;;;;;;30.60;6.85;;;16.80;58.10;;;;;;10371992;28;20029;-56
2022/03/12 09:23:24;;;;;;;34.53;6.25;;;16.90;58.40;;;;;;10366310;28;20033;-51
2022/03/12 09:28:25;;;;;;;28.58;7.22;;;16.90;58.70;;;;;;10373281;28;20034;-56
2022/03/12 09:33:26;;;;;;;34.90;7.13;;;16.90;58.40;;;;;;10381799;28;20029;-57
2022/03/12 09:38:27;;;;;;;19.30;4.28;;;16.90;58.20;;;;;;10374010;28;20180;-57
2022/03/12 09:43:28;;;;;;;15.52;5.57;;;16.80;57.90;;;;;;10351057;28;20100;-57
2022/03/12 09:48:28;;;;;;;20.33;5.07;;;16.80;57.70;;;;;;10384132;28;20038;-57
2022/03/12 09:53:29;;;;;;;15.82;5.32;;;16.80;57.80;;;;;;10362940;28;20503;-57
2022/03/12 09:58:30;;;;;;;18.48;5.03;;;16.80;57.70;;;;;;10374020;28;20079;-57
2022/03/12 10:03:32;;;;;;;17.65;4.65;;;16.80;57.80;;;;;;10373375;28;20036;-56
2022/03/12 10:08:33;;;;;;;15.77;4.18;;;16.90;57.80;;;;;;10370175;28;20034;-57
2022/03/12 10:13:34;;;;;;;13.63;5.13;;;16.90;57.70;;;;;;10378578;28;20038;-57
2022/03/12 10:18:36;;;;;;;9.23;3.90;;;16.80;57.70;;;;;;10379014;28;20029;-57
2022/03/12 10:23:36;;;;;;;16.25;4.80;;;16.90;57.80;;;;;;10394536;28;20485;-57
2022/03/12 10:28:37;;;;;;;11.55;4.35;;;16.90;57.80;;;;;;10388934;28;20026;-57
2022/03/12 10:33:39;;;;;;;12.13;4.47;;;16.90;57.80;;;;;;10371162;28;20028;-57
2022/03/12 10:38:50;;;;;;;13.85;4.75;;;16.90;57.70;;;;;;10385387;28;20540;-57
2022/03/12 10:43:55;;;;;;;9.73;3.55;;;16.90;57.50;;;;;;10417850;28;20163;-57
2022/03/12 10:48:59;;;;;;;8.65;3.88;;;16.90;57.50;;;;;;10387618;28;20362;-57
2022/03/12 10:54:08;;;;;;;9.07;3.78;;;16.90;57.50;;;;;;10371540;28;20044;-57
2022/03/12 10:59:16;;;;;;;10.27;3.80;;;16.80;57.40;;;;;;10373784;28;20026;-57
2022/03/12 11:04:23;;;;;;;9.80;3.53;;;16.80;57.50;;;;;;10372799;28;20335;-57
2022/03/12 11:09:39;;;;;;;8.25;3.10;;;16.80;57.60;;;;;;10377005;28;20030;-57
2022/03/12 11:14:40;;;;;;;8.13;3.80;;;16.80;57.60;;;;;;10376053;28;20041;-57
2022/03/12 11:19:42;;;;;;;9.57;3.17;;;16.80;57.50;;;;;;10384229;28;20069;-57
2022/03/12 11:24:52;;;;;;;8.70;3.42;;;16.80;57.40;;;;;;10416406;28;20128;-57
2022/03/12 11:30:00;;;;;;;7.28;3.45;;;16.80;57.70;;;;;;10380767;28;20097;-58
2022/03/12 11:35:08;;;;;;;9.65;3.83;;;16.80;57.00;;;;;;10372658;28;20409;-55
2022/03/12 11:40:18;;;;;;;7.28;3.60;;;16.80;57.20;;;;;;10375975;28;20030;-57
2022/03/12 11:45:20;;;;;;;13.32;4.70;;;16.80;57.20;;;;;;10384016;28;20048;-59
2022/03/12 11:50:24;;;;;;;13.40;3.85;;;16.90;57.60;;;;;;10358393;28;20018;-54
2022/03/12 11:55:27;;;;;;;14.45;4.03;;;16.90;58.60;;;;;;10377820;28;20075;-56
2022/03/12 12:00:29;;;;;;;14.50;3.92;;;17.00;59.40;;;;;;10375089;28;20036;-57
2022/03/12 12:05:31;;;;;;;17.20;4.47;;;17.10;58.40;;;;;;10364019;28;20030;-57
2022/03/12 12:10:32;;;;;;;14.85;4.20;;;17.10;57.60;;;;;;10390898;28;20048;-55
2022/03/12 12:15:36;;;;;;;7.25;3.72;;;17.10;59.00;;;;;;10398883;28;20447;-57
2022/03/12 12:20:37;;;;;;;15.98;4.38;;;17.10;57.90;;;;;;10408296;28;20084;-56
2022/03/12 12:25:38;;;;;;;20.15;5.85;;;17.20;58.10;;;;;;10390868;28;20064;-57
2022/03/12 12:30:43;;;;;;;16.17;5.03;;;17.10;58.20;;;;;;10369727;28;20520;-57
2022/03/12 12:36:08;;;;;;;30.30;5.13;;;17.10;58.40;;;;;;10388160;28;20032;-57
2022/03/12 12:41:10;;;;;;;31.20;6.47;;;17.10;58.70;;;;;;10351947;28;20049;-56
2022/03/12 12:46:19;;;;;;;30.63;5.30;;;17.20;59.20;;;;;;10368727;28;20069;-56
2022/03/12 12:51:22;;;;;;;27.13;7.28;;;17.30;60.80;;;;;;10408321;28;20505;-59
2022/03/12 12:56:38;;;;;;;35.75;5.80;;;17.60;62.00;;;;;;10340988;28;20037;-59
2022/03/12 13:01:39;;;;;;;34.17;5.85;;;17.70;60.40;;;;;;10381567;28;20103;-56
2022/03/12 13:06:43;;;;;;;35.95;6.93;;;17.60;61.00;;;;;;10397030;28;20033;-56
2022/03/12 13:11:51;;;;;;;49.17;7.20;;;17.60;60.40;;;;;;10378074;28;20064;-57
2022/03/12 13:17:05;;;;;;;33.28;6.72;;;17.50;60.50;;;;;;10379631;28;20029;-58
2022/03/12 13:22:08;;;;;;;38.40;7.10;;;17.50;60.20;;;;;;10382211;28;20485;-57
2022/03/12 13:27:30;;;;;;;24.52;8.00;;;17.40;60.10;;;;;;10379173;28;20049;-58
2022/03/12 13:32:31;;;;;;;33.35;7.20;;;17.40;60.10;;;;;;10367718;28;20078;-58
2022/03/12 13:37:32;;;;;;;27.48;6.53;;;17.50;60.10;;;;;;10378319;28;20044;-59
2022/03/12 13:42:33;;;;;;;16.92;4.82;;;17.50;59.90;;;;;;10414009;28;20036;-58
2022/03/12 13:47:35;;;;;;;21.15;5.78;;;17.50;59.80;;;;;;10387361;28;20032;-59
2022/03/12 13:52:36;;;;;;;19.15;5.57;;;17.50;59.60;;;;;;10381877;28;20116;-57
2022/03/12 13:57:38;;;;;;;21.88;5.95;;;17.50;59.60;;;;;;10401887;28;20045;-59
2022/03/12 14:02:57;;;;;;;22.73;5.25;;;17.50;59.30;;;;;;10388280;28;20396;-58
2022/03/12 14:08:17;;;;;;;14.43;3.90;;;17.50;59.40;;;;;;10376623;28;20382;-59
2022/03/12 14:13:18;;;;;;;17.88;4.70;;;17.40;59.30;;;;;;10369380;28;20551;-59
2022/03/12 14:18:26;;;;;;;11.25;4.20;;;17.40;59.40;;;;;;10388623;28;20099;-58
2022/03/12 14:23:27;;;;;;;19.95;4.28;;;17.40;59.30;;;;;;10380538;28;20132;-58
2022/03/12 14:28:28;;;;;;;13.45;3.40;;;17.40;59.50;;;;;;10392902;28;20501;-58
2022/03/12 14:33:29;;;;;;;14.35;3.35;;;17.30;59.20;;;;;;10418364;28;20116;-58
2022/03/12 14:38:31;;;;;;;10.73;3.95;;;17.30;59.30;;;;;;10418646;28;20381;-59
2022/03/12 14:43:31;;;;;;;14.55;4.40;;;17.30;59.20;;;;;;10416989;28;20410;-58
2022/03/12 14:48:32;;;;;;;11.18;4.05;;;17.30;59.30;;;;;;10360382;28;20113;-59
2022/03/12 14:53:44;;;;;;;10.93;4.13;;;17.20;59.20;;;;;;10360473;28;20034;-58
2022/03/12 14:58:45;;;;;;;9.57;3.17;;;17.30;59.20;;;;;;10377451;28;20488;-58
2022/03/12 15:03:53;;;;;;;10.60;3.28;;;17.20;59.10;;;;;;10387267;28;20038;-58
2022/03/12 15:09:05;;;;;;;8.68;3.08;;;17.20;59.10;;;;;;10372915;28;20034;-59
2022/03/12 15:14:07;;;;;;;13.52;3.40;;;17.20;59.10;;;;;;10388594;28;20497;-58
2022/03/12 15:19:15;;;;;;;11.50;3.83;;;17.10;59.00;;;;;;10385774;28;20071;-59
2022/03/12 15:24:16;;;;;;;7.88;2.67;;;17.10;59.00;;;;;;10387305;28;20405;-58
2022/03/12 15:29:28;;;;;;;7.63;2.67;;;17.10;59.00;;;;;;10384110;28;20022;-58
2022/03/12 15:34:33;;;;;;;12.27;3.10;;;17.10;59.00;;;;;;10387102;28;20029;-58
2022/03/12 15:39:34;;;;;;;8.70;2.50;;;17.10;59.00;;;;;;10384945;28;20029;-58
2022/03/12 15:44:35;;;;;;;25.38;4.22;;;17.10;58.90;;;;;;10383642;28;20037;-56
2022/03/12 15:49:36;;;;;;;18.55;3.80;;;17.10;59.40;;;;;;10395074;28;20028;-58
2022/03/12 15:54:37;;;;;;;22.70;5.30;;;17.20;59.40;;;;;;10365819;28;20054;-58
2022/03/12 15:59:38;;;;;;;156.70;59.53;;;17.30;62.10;;;;;;10370843;28;20508;-57
2022/03/12 16:04:39;;;;;;;41.25;10.32;;;17.60;62.90;;;;;;10355887;28;20018;-59
2022/03/12 16:09:40;;;;;;;38.45;12.90;;;17.50;60.10;;;;;;10382885;28;20116;-57
2022/03/12 16:14:43;;;;;;;39.10;11.65;;;17.50;63.50;;;;;;10374886;28;20398;-56
2022/03/12 16:19:44;;;;;;;48.10;12.05;;;17.60;60.70;;;;;;10374818;28;20686;-56
2022/03/12 16:24:45;;;;;;;39.78;9.65;;;17.60;60.70;;;;;;10377079;28;20045;-59
2022/03/12 16:29:46;;;;;;;38.03;9.70;;;17.80;60.00;;;;;;10371647;28;20057;-58
2022/03/12 16:34:47;;;;;;;48.72;11.73;;;17.90;60.70;;;;;;10396770;28;20053;-59
2022/03/12 16:39:48;;;;;;;42.53;11.10;;;18.00;61.10;;;;;;10388340;28;20036;-58
2022/03/12 16:44:49;;;;;;;32.45;10.77;;;18.00;61.20;;;;;;10379413;28;20393;-59
2022/03/12 16:49:52;;;;;;;40.38;10.32;;;18.00;62.00;;;;;;10368688;28;20057;-59
2022/03/12 16:54:53;;;;;;;26.02;9.57;;;18.10;62.20;;;;;;10368996;28;20033;-59
2022/03/12 16:59:54;;;;;;;29.00;9.20;;;18.10;62.90;;;;;;10400398;28;20108;-58
2022/03/12 17:04:55;;;;;;;31.15;7.97;;;18.20;63.20;;;;;;10382170;28;20045;-57
2022/03/12 17:09:57;;;;;;;39.47;9.45;;;18.40;62.00;;;;;;10380464;28;20038;-58
2022/03/12 17:14:58;;;;;;;29.95;9.50;;;18.40;62.70;;;;;;10372190;28;20030;-57
2022/03/12 17:19:59;;;;;;;28.95;8.75;;;18.20;63.60;;;;;;10384302;28;20053;-57
2022/03/12 17:25:07;;;;;;;34.58;9.07;;;18.10;64.00;;;;;;10412005;28;20041;-58
2022/03/12 17:30:11;;;;;;;35.22;9.73;;;17.90;63.80;;;;;;10382398;28;20049;-57
2022/03/12 17:35:13;;;;;;;37.50;8.82;;;17.90;63.60;;;;;;10378308;28;20545;-59
2022/03/12 17:40:15;;;;;;;35.85;9.65;;;17.80;63.80;;;;;;10375884;28;20414;-60
2022/03/12 17:45:16;;;;;;;34.88;9.18;;;17.70;63.70;;;;;;10371495;28;20371;-58
2022/03/12 17:50:17;;;;;;;25.42;7.88;;;17.60;64.00;;;;;;10367750;28;20038;-59
2022/03/12 17:55:19;;;;;;;25.70;8.25;;;17.50;63.90;;;;;;10370286;28;20034;-60
2022/03/12 18:00:23;;;;;;;28.30;7.57;;;17.50;63.80;;;;;;10377898;28;20037;-59
2022/03/12 18:05:30;;;;;;;25.52;7.45;;;17.40;63.80;;;;;;10378757;28;20493;-60
2022/03/12 18:10:33;;;;;;;25.63;7.55;;;17.50;63.60;;;;;;10374860;28;20034;-59
2022/03/12 18:15:34;;;;;;;24.02;7.22;;;17.40;63.20;;;;;;10367507;28;20025;-59
2022/03/12 18:20:37;;;;;;;20.20;6.55;;;17.40;63.10;;;;;;10389087;28;20061;-59
2022/03/12 18:25:38;;;;;;;24.70;6.43;;;17.40;62.90;;;;;;10380714;28;20069;-59
2022/03/12 18:30:39;;;;;;;19.33;5.95;;;17.30;62.80;;;;;;10384627;28;20033;-60
2022/03/12 18:35:39;;;;;;;14.93;6.43;;;17.30;62.70;;;;;;10376280;28;20041;-59
2022/03/12 18:40:42;;;;;;;13.52;4.88;;;17.30;62.70;;;;;;10387447;28;20032;-59
2022/03/12 18:45:48;;;;;;;17.98;5.53;;;17.30;62.60;;;;;;10393745;28;20022;-59
2022/03/12 18:50:51;;;;;;;16.52;6.35;;;17.20;61.80;;;;;;10370513;28;20030;-59
2022/03/12 18:55:52;;;;;;;17.08;5.35;;;17.20;61.90;;;;;;10370914;28;20026;-59
2022/03/12 19:00:53;;;;;;;12.80;5.90;;;17.30;61.90;;;;;;10372955;28;20053;-58
2022/03/12 19:05:55;;;;;;;11.20;5.00;;;17.30;61.80;;;;;;10372801;28;20489;-58
2022/03/12 19:10:56;;;;;;;13.57;4.95;;;17.30;61.80;;;;;;10396228;28;20038;-57
2022/03/12 19:15:57;;;;;;;17.23;5.60;;;17.30;62.00;;;;;;10374771;28;20049;-58
2022/03/12 19:20:58;;;;;;;16.10;5.45;;;17.20;61.60;;;;;;10383854;28;20557;-59
2022/03/12 19:25:59;;;;;;;9.93;4.43;;;17.20;61.60;;;;;;10394344;28;20462;-59
2022/03/12 19:31:02;;;;;;;19.10;5.25;;;17.20;61.60;;;;;;10361889;28;20397;-58
2022/03/12 19:36:03;;;;;;;8.02;3.78;;;17.20;61.50;;;;;;10384584;28;20080;-58
2022/03/12 19:41:04;;;;;;;13.30;4.18;;;17.20;61.50;;;;;;10392948;28;20504;-58
2022/03/12 19:46:04;;;;;;;10.45;4.07;;;17.20;61.60;;;;;;10377503;28;20044;-58
2022/03/12 19:51:06;;;;;;;9.68;4.18;;;17.20;61.50;;;;;;10383714;28;20040;-58
2022/03/12 19:56:07;;;;;;;9.10;3.72;;;17.20;61.40;;;;;;10385094;28;20051;-58
2022/03/12 20:01:09;;;;;;;8.25;3.28;;;17.20;61.40;;;;;;10415368;28;20407;-57
2022/03/12 20:06:10;;;;;;;8.40;4.13;;;17.20;61.90;;;;;;10415917;28;20381;-57
2022/03/12 20:11:11;;;;;;;11.52;4.25;;;17.20;61.30;;;;;;10385114;28;20032;-58
2022/03/12 20:16:12;;;;;;;7.68;3.75;;;17.20;61.30;;;;;;10378292;28;20501;-58
2022/03/12 20:21:13;;;;;;;10.88;4.35;;;17.20;61.40;;;;;;10365006;28;20498;-59
2022/03/12 20:26:15;;;;;;;8.95;4.00;;;17.20;61.30;;;;;;10369811;28;20132;-58
2022/03/12 20:31:16;;;;;;;9.63;4.15;;;17.20;61.10;;;;;;10367568;28;20573;-61
2022/03/12 20:36:17;;;;;;;7.43;3.80;;;17.20;61.20;;;;;;10361155;28;20037;-61
2022/03/12 20:41:17;;;;;;;7.38;3.15;;;17.10;61.10;;;;;;10368002;28;20034;-61
2022/03/12 20:46:19;;;;;;;8.23;3.67;;;17.20;61.00;;;;;;10337362;28;20057;-61
2022/03/12 20:51:20;;;;;;;8.20;2.90;;;17.10;60.90;;;;;;10365450;28;20418;-62
2022/03/12 20:56:21;;;;;;;13.00;4.25;;;17.10;60.80;;;;;;10378937;28;20029;-61
2022/03/12 21:01:22;;;;;;;5.30;3.03;;;17.10;60.70;;;;;;10367924;28;20082;-60
2022/03/12 21:06:23;;;;;;;6.28;3.53;;;17.10;61.30;;;;;;10353852;28;20120;-61
2022/03/12 21:11:24;;;;;;;7.47;3.42;;;17.10;60.50;;;;;;10372999;28;20079;-61
2022/03/12 21:16:26;;;;;;;6.63;3.65;;;17.10;60.40;;;;;;10368669;28;20083;-61
2022/03/12 21:21:28;;;;;;;5.22;2.97;;;17.10;60.30;;;;;;10372368;28;20080;-61
2022/03/12 21:26:29;;;;;;;5.88;3.13;;;17.10;60.30;;;;;;10382214;28;20063;-61
2022/03/12 21:31:30;;;;;;;10.50;3.40;;;17.10;60.20;;;;;;10374515;28;20022;-61
2022/03/12 21:36:30;;;;;;;6.70;2.80;;;17.00;60.30;;;;;;10372537;28;20040;-61
2022/03/12 21:41:31;;;;;;;10.40;3.67;;;17.10;60.30;;;;;;10351275;28;20127;-60
2022/03/12 21:46:32;;;;;;;4.75;2.65;;;17.10;60.20;;;;;;10367322;28;20033;-61
2022/03/12 21:51:33;;;;;;;5.80;3.05;;;17.10;60.10;;;;;;10372869;28;20563;-61
2022/03/12 21:56:34;;;;;;;4.75;2.47;;;17.10;60.00;;;;;;10369898;28;20042;-61
2022/03/12 22:01:34;;;;;;;5.30;3.05;;;17.10;60.10;;;;;;10355507;28;20068;-61
2022/03/12 22:06:35;;;;;;;7.28;3.13;;;17.10;59.90;;;;;;10388632;28;20034;-61
2022/03/12 22:11:36;;;;;;;6.20;2.80;;;17.10;59.90;;;;;;10374593;28;20092;-62
2022/03/12 22:16:37;;;;;;;4.93;3.08;;;17.10;59.90;;;;;;10385510;28;20045;-61
2022/03/12 22:21:38;;;;;;;7.43;3.15;;;17.10;60.00;;;;;;10361430;28;20180;-61
2022/03/12 22:26:40;;;;;;;5.82;3.17;;;17.10;60.00;;;;;;10374590;28;20042;-61
2022/03/12 22:31:40;;;;;;;4.80;2.67;;;17.00;60.00;;;;;;10373972;28;20544;-61
2022/03/12 22:36:41;;;;;;;7.53;3.90;;;17.00;60.00;;;;;;10374293;28;20040;-61
2022/03/12 22:41:43;;;;;;;6.07;2.83;;;17.00;60.00;;;;;;10357578;28;20034;-61
2022/03/12 22:46:44;;;;;;;5.53;2.80;;;17.10;59.80;;;;;;10378321;28;20029;-61
2022/03/12 22:51:46;;;;;;;6.38;3.15;;;17.10;59.80;;;;;;10371160;28;20066;-61
2022/03/12 22:56:47;;;;;;;6.07;3.10;;;17.10;59.80;;;;;;10376107;28;20029;-61
2022/03/12 23:01:51;;;;;;;4.20;2.70;;;17.00;59.80;;;;;;10387123;28;20125;-61
2022/03/12 23:12:16;;;;;;;5.22;2.83;;;17.10;59.50;;;;;;10417801;28;20045;-61
2022/03/12 23:17:24;;;;;;;4.10;2.45;;;17.10;59.30;;;;;;10365135;28;20485;-61
2022/03/12 23:22:26;;;;;;;5.32;3.03;;;17.10;59.30;;;;;;10385317;28;20042;-61
2022/03/12 23:27:33;;;;;;;4.18;2.65;;;17.00;59.30;;;;;;10376482;28;20046;-61
2022/03/12 23:32:34;;;;;;;4.43;2.88;;;17.10;59.30;;;;;;10376272;28;20072;-61
2022/03/12 23:37:37;;;;;;;3.55;2.63;;;17.00;59.30;;;;;;10371987;28;20378;-61
2022/03/12 23:42:41;;;;;;;4.25;2.55;;;17.00;59.30;;;;;;10375908;28;20454;-60
2022/03/12 23:47:46;;;;;;;4.97;2.83;;;17.00;59.30;;;;;;10376796;28;20465;-61
2022/03/12 23:52:47;;;;;;;6.78;3.28;;;17.00;59.30;;;;;;10379252;28;20424;-61
2022/03/12 23:57:48;;;;;;;5.05;2.55;;;17.10;59.20;;;;;;10392442;28;20042;-61
